Time;durP1;ratioP1;P1;durP2;ratioP2;P2;SDS_P1;SDS_P2;PMS_P1;PMS_P2;Temp;Humidity;BMP_temperature;BMP_pressure;BME280_temperature;BME280_humidity;BME280_pressure;Samples;Min_cycle;Max_cycle;Signal;HPM_P1;HPM_P2
2023/04/06 00:00:55;;;;;;;10.48;6.50;;;;;;;;;;5065686;28;20048;-80
2023/04/06 00:03:21;;;;;;;8.05;5.10;;;;;;;;;;5069067;28;20075;-80
2023/04/06 00:05:47;;;;;;;9.15;5.72;;;;;;;;;;5070650;28;20047;-81
2023/04/06 00:08:14;;;;;;;10.13;6.25;;;;;;;;;;5070591;28;20090;-80
2023/04/06 00:10:40;;;;;;;9.25;5.88;;;;;;;;;;5071615;28;20076;-80
2023/04/06 00:13:07;;;;;;;9.50;6.38;;;;;;;;;;5075214;28;20041;-80
2023/04/06 00:15:33;;;;;;;9.38;5.53;;;;;;;;;;5075078;28;20082;-80
2023/04/06 00:18:00;;;;;;;9.65;5.95;;;;;;;;;;5076497;28;20102;-80
2023/04/06 00:20:26;;;;;;;10.63;6.40;;;;;;;;;;5075912;28;20036;-80
2023/04/06 00:22:52;;;;;;;11.40;5.75;;;;;;;;;;5074961;28;20424;-80
2023/04/06 00:25:18;;;;;;;8.48;5.55;;;;;;;;;;5075641;28;20049;-80
2023/04/06 00:27:44;;;;;;;10.45;5.95;;;;;;;;;;5075657;28;20095;-80
2023/04/06 00:30:10;;;;;;;10.55;6.18;;;;;;;;;;5058194;28;20041;-80
2023/04/06 00:32:37;;;;;;;12.93;5.78;;;;;;;;;;5076501;28;20041;-80
2023/04/06 00:35:06;;;;;;;10.68;5.95;;;;;;;;;;5075805;28;20044;-80
2023/04/06 00:37:32;;;;;;;11.02;5.78;;;;;;;;;;5068638;28;20052;-80
2023/04/06 00:39:59;;;;;;;9.88;6.20;;;;;;;;;;5067040;28;20396;-80
2023/04/06 00:42:25;;;;;;;12.63;6.00;;;;;;;;;;5075478;28;20037;-80
2023/04/06 00:44:59;;;;;;;10.07;5.55;;;;;;;;;;5074153;28;20051;-80
2023/04/06 00:47:25;;;;;;;12.15;6.18;;;;;;;;;;5061309;28;20040;-80
2023/04/06 00:49:52;;;;;;;16.00;6.80;;;;;;;;;;5070020;28;20044;-80
2023/04/06 00:52:18;;;;;;;10.40;6.35;;;;;;;;;;5066352;28;20082;-80
2023/04/06 00:54:44;;;;;;;10.82;5.90;;;;;;;;;;5074732;28;20476;-80
2023/04/06 00:57:11;;;;;;;12.40;6.50;;;;;;;;;;5075550;28;20551;-80
2023/04/06 00:59:37;;;;;;;10.00;6.05;;;;;;;;;;5073948;28;20493;-80
2023/04/06 01:02:04;;;;;;;11.27;6.10;;;;;;;;;;5066696;28;20040;-82
2023/04/06 01:04:30;;;;;;;10.25;6.15;;;;;;;;;;5075282;28;20058;-81
2023/04/06 01:06:56;;;;;;;10.10;6.88;;;;;;;;;;5074944;28;20079;-81
2023/04/06 01:09:22;;;;;;;10.55;6.28;;;;;;;;;;5073849;28;20036;-81
2023/04/06 01:11:48;;;;;;;10.68;6.30;;;;;;;;;;5074585;28;20028;-81
2023/04/06 01:14:14;;;;;;;10.02;6.07;;;;;;;;;;5073698;28;20068;-81
2023/04/06 01:16:41;;;;;;;9.75;6.50;;;;;;;;;;5073147;28;20059;-81
2023/04/06 01:19:14;;;;;;;11.98;6.28;;;;;;;;;;5073709;28;20048;-81
2023/04/06 01:21:41;;;;;;;11.88;6.05;;;;;;;;;;5058382;28;20450;-81
2023/04/06 01:24:07;;;;;;;12.23;6.32;;;;;;;;;;5061517;28;20040;-81
2023/04/06 01:26:34;;;;;;;10.52;6.32;;;;;;;;;;5073421;28;20094;-81
2023/04/06 01:29:01;;;;;;;10.05;6.40;;;;;;;;;;5073827;28;20041;-81
2023/04/06 01:31:27;;;;;;;10.07;6.25;;;;;;;;;;5073424;28;20097;-81
2023/04/06 01:33:54;;;;;;;11.23;6.75;;;;;;;;;;5056878;28;20073;-81
2023/04/06 01:36:20;;;;;;;12.95;6.47;;;;;;;;;;5053230;28;20037;-81
2023/04/06 01:38:46;;;;;;;12.48;6.60;;;;;;;;;;5052846;28;20075;-81
2023/04/06 01:41:13;;;;;;;11.77;6.75;;;;;;;;;;5054613;28;20051;-81
2023/04/06 01:43:39;;;;;;;11.07;6.20;;;;;;;;;;5053239;28;20435;-81
2023/04/06 01:46:05;;;;;;;10.90;6.63;;;;;;;;;;5053491;28;20119;-81
2023/04/06 01:48:31;;;;;;;11.68;6.78;;;;;;;;;;5053519;28;20559;-81
2023/04/06 01:50:57;;;;;;;11.10;6.90;;;;;;;;;;5053523;28;20084;-81
2023/04/06 01:53:23;;;;;;;11.30;6.60;;;;;;;;;;5060260;28;20036;-81
2023/04/06 01:55:49;;;;;;;12.32;6.72;;;;;;;;;;5072776;28;20443;-81
2023/04/06 01:58:15;;;;;;;10.80;6.80;;;;;;;;;;5072730;28;20036;-81
2023/04/06 02:00:42;;;;;;;14.30;7.50;;;;;;;;;;5066700;28;20458;-81
2023/04/06 02:03:08;;;;;;;12.30;6.82;;;;;;;;;;5049598;28;20451;-81
2023/04/06 02:05:37;;;;;;;11.48;6.78;;;;;;;;;;5052038;28;20041;-81
2023/04/06 02:08:07;;;;;;;12.80;7.20;;;;;;;;;;5053834;28;20086;-81
2023/04/06 02:10:33;;;;;;;11.20;6.65;;;;;;;;;;5065945;28;20045;-81
2023/04/06 02:13:00;;;;;;;14.52;6.90;;;;;;;;;;5053458;28;20472;-81
2023/04/06 02:15:26;;;;;;;11.38;7.05;;;;;;;;;;5053936;28;20036;-81
2023/04/06 02:17:52;;;;;;;11.48;6.95;;;;;;;;;;5053205;28;20043;-81
2023/04/06 02:20:18;;;;;;;9.95;7.07;;;;;;;;;;5085976;28;20130;-81
2023/04/06 02:22:44;;;;;;;13.98;7.30;;;;;;;;;;5053362;28;20045;-81
2023/04/06 02:25:11;;;;;;;11.90;7.13;;;;;;;;;;5053606;28;20040;-81
2023/04/06 02:27:37;;;;;;;11.93;7.22;;;;;;;;;;5053605;28;20044;-81
2023/04/06 02:30:04;;;;;;;16.10;7.03;;;;;;;;;;5066380;28;20048;-81
2023/04/06 02:32:30;;;;;;;11.05;7.53;;;;;;;;;;5051947;28;20127;-81
2023/04/06 02:34:56;;;;;;;13.10;7.43;;;;;;;;;;5052474;28;20500;-81
2023/04/06 02:37:23;;;;;;;12.88;7.35;;;;;;;;;;5065971;28;20036;-81
2023/04/06 02:39:50;;;;;;;11.98;6.93;;;;;;;;;;5060006;28;20040;-81
2023/04/06 02:42:16;;;;;;;13.45;7.70;;;;;;;;;;5083379;28;20040;-81
2023/04/06 02:44:43;;;;;;;12.55;7.50;;;;;;;;;;5053072;28;20036;-81
2023/04/06 02:47:09;;;;;;;12.73;7.35;;;;;;;;;;5051804;28;20072;-80
2023/04/06 02:49:35;;;;;;;12.18;7.15;;;;;;;;;;5061537;28;20044;-80
2023/04/06 02:52:02;;;;;;;11.30;6.93;;;;;;;;;;5072624;28;20119;-81
2023/04/06 02:54:28;;;;;;;16.10;7.30;;;;;;;;;;5072182;28;20565;-80
2023/04/06 02:56:54;;;;;;;16.20;7.45;;;;;;;;;;5055146;28;20401;-81
2023/04/06 02:59:20;;;;;;;19.77;7.78;;;;;;;;;;5066278;28;20037;-81
2023/04/06 03:01:46;;;;;;;19.08;7.65;;;;;;;;;;5064166;28;20048;-81
2023/04/06 03:04:12;;;;;;;15.88;7.43;;;;;;;;;;5059724;28;20041;-81
2023/04/06 03:06:38;;;;;;;15.60;7.40;;;;;;;;;;5062411;28;20044;-81
2023/04/06 03:09:06;;;;;;;12.02;6.95;;;;;;;;;;5072717;28;20206;-81
2023/04/06 03:11:32;;;;;;;14.95;8.02;;;;;;;;;;5073039;28;20040;-81
2023/04/06 03:13:59;;;;;;;13.30;7.82;;;;;;;;;;5071383;28;20078;-81
2023/04/06 03:16:25;;;;;;;13.80;7.78;;;;;;;;;;5072263;28;20041;-80
2023/04/06 03:18:51;;;;;;;13.02;7.68;;;;;;;;;;5073463;28;20039;-81
2023/04/06 03:21:19;;;;;;;15.27;8.13;;;;;;;;;;5072800;28;20407;-81
2023/04/06 03:23:45;;;;;;;12.63;7.53;;;;;;;;;;5073507;28;20547;-80
2023/04/06 03:26:11;;;;;;;12.15;7.70;;;;;;;;;;5055067;28;20552;-81
2023/04/06 03:28:37;;;;;;;12.90;7.38;;;;;;;;;;5071444;28;20051;-81
2023/04/06 03:31:03;;;;;;;15.38;8.43;;;;;;;;;;5072154;28;20040;-80
2023/04/06 03:33:29;;;;;;;14.27;9.00;;;;;;;;;;5071269;28;20041;-81
2023/04/06 03:35:56;;;;;;;12.98;7.80;;;;;;;;;;5071050;28;20121;-81
2023/04/06 03:38:22;;;;;;;13.50;8.10;;;;;;;;;;5067874;28;20487;-80
2023/04/06 03:40:48;;;;;;;15.52;8.52;;;;;;;;;;5094146;28;20059;-81
2023/04/06 03:43:14;;;;;;;13.00;7.50;;;;;;;;;;5054372;28;20052;-81
2023/04/06 03:45:40;;;;;;;14.18;8.05;;;;;;;;;;5072498;28;20488;-81
2023/04/06 03:48:06;;;;;;;15.43;8.38;;;;;;;;;;5054082;28;20131;-80
2023/04/06 03:50:32;;;;;;;13.52;8.48;;;;;;;;;;5071026;28;20048;-81
2023/04/06 03:52:58;;;;;;;14.52;8.00;;;;;;;;;;5070938;28;20423;-81
2023/04/06 03:55:24;;;;;;;13.55;8.25;;;;;;;;;;5071007;28;20037;-81
2023/04/06 03:57:50;;;;;;;15.98;8.63;;;;;;;;;;5070750;28;20045;-81
2023/04/06 04:00:16;;;;;;;15.82;8.38;;;;;;;;;;5071122;28;20048;-81
2023/04/06 04:02:43;;;;;;;13.52;8.80;;;;;;;;;;5049157;28;20036;-81
2023/04/06 04:05:09;;;;;;;13.40;7.93;;;;;;;;;;5050982;28;20128;-81
2023/04/06 04:07:35;;;;;;;15.85;8.63;;;;;;;;;;5050559;28;20029;-81
2023/04/06 04:10:01;;;;;;;13.02;8.55;;;;;;;;;;5050403;28;20060;-81
2023/04/06 04:12:27;;;;;;;17.70;8.43;;;;;;;;;;5050903;28;20045;-81
2023/04/06 04:14:53;;;;;;;14.63;8.48;;;;;;;;;;5050781;28;20029;-81
2023/04/06 04:17:19;;;;;;;14.68;8.77;;;;;;;;;;5052236;28;20037;-81
2023/04/06 04:19:45;;;;;;;16.50;8.65;;;;;;;;;;5050743;28;20048;-81
2023/04/06 04:22:11;;;;;;;16.20;8.85;;;;;;;;;;5050640;28;20045;-81
2023/04/06 04:24:37;;;;;;;16.38;9.48;;;;;;;;;;5050571;28;20045;-81
2023/04/06 04:27:04;;;;;;;15.55;8.85;;;;;;;;;;5050724;28;20046;-81
2023/04/06 04:29:31;;;;;;;17.95;8.77;;;;;;;;;;5051720;28;20040;-80
2023/04/06 04:31:57;;;;;;;17.52;9.02;;;;;;;;;;5050700;28;20536;-81
2023/04/06 04:34:26;;;;;;;15.38;9.18;;;;;;;;;;5050552;28;20041;-81
2023/04/06 04:36:53;;;;;;;15.63;8.95;;;;;;;;;;5050827;28;20040;-80
2023/04/06 04:39:19;;;;;;;13.38;9.02;;;;;;;;;;5051743;28;20049;-81
2023/04/06 04:41:45;;;;;;;15.35;8.85;;;;;;;;;;5069295;28;20455;-81
2023/04/06 04:44:11;;;;;;;18.45;9.82;;;;;;;;;;5071196;28;20044;-80
2023/04/06 04:46:37;;;;;;;16.20;9.40;;;;;;;;;;5073263;28;20505;-80
2023/04/06 04:49:03;;;;;;;16.25;8.68;;;;;;;;;;5072083;28;20033;-81
2023/04/06 04:51:30;;;;;;;16.80;9.15;;;;;;;;;;5070933;28;20041;-81
2023/04/06 04:53:56;;;;;;;16.75;8.60;;;;;;;;;;5056788;28;20075;-81
2023/04/06 04:56:22;;;;;;;20.85;9.32;;;;;;;;;;5072125;28;20037;-81
2023/04/06 04:58:48;;;;;;;18.65;9.13;;;;;;;;;;5072155;28;20060;-81
2023/04/06 05:01:15;;;;;;;15.15;9.40;;;;;;;;;;5057443;28;20033;-81
2023/04/06 05:03:41;;;;;;;15.68;9.45;;;;;;;;;;5057111;28;20052;-81
2023/04/06 05:06:07;;;;;;;15.32;9.32;;;;;;;;;;5074991;28;20044;-81
2023/04/06 05:08:34;;;;;;;16.05;9.50;;;;;;;;;;5075349;28;20443;-81
2023/04/06 05:11:00;;;;;;;15.20;9.23;;;;;;;;;;5074698;28;20417;-80
2023/04/06 05:13:26;;;;;;;18.27;9.60;;;;;;;;;;5063077;28;20045;-81
2023/04/06 05:15:52;;;;;;;18.23;9.32;;;;;;;;;;5072899;28;20424;-80
2023/04/06 05:18:18;;;;;;;17.30;9.38;;;;;;;;;;5056955;28;20044;-81
2023/04/06 05:20:44;;;;;;;16.23;9.32;;;;;;;;;;5075043;28;20458;-81
2023/04/06 05:23:10;;;;;;;15.27;8.63;;;;;;;;;;5074595;28;20047;-81
2023/04/06 05:25:36;;;;;;;16.02;9.23;;;;;;;;;;5075002;28;20504;-81
2023/04/06 05:28:03;;;;;;;21.40;8.85;;;;;;;;;;5073526;28;20068;-81
2023/04/06 05:30:29;;;;;;;21.33;8.77;;;;;;;;;;5061567;28;20041;-81
2023/04/06 05:32:55;;;;;;;17.95;9.10;;;;;;;;;;5054025;28;20393;-81
2023/04/06 05:35:21;;;;;;;26.02;9.77;;;;;;;;;;5054895;28;20443;-81
2023/04/06 05:37:47;;;;;;;20.40;9.50;;;;;;;;;;5054811;28;20061;-81
2023/04/06 05:40:13;;;;;;;17.20;8.75;;;;;;;;;;5053338;28;20056;-81
2023/04/06 05:42:40;;;;;;;19.08;9.40;;;;;;;;;;5055624;28;20047;-81
2023/04/06 05:45:10;;;;;;;16.25;8.90;;;;;;;;;;5055652;28;20059;-81
2023/04/06 05:47:36;;;;;;;16.05;8.25;;;;;;;;;;5053539;28;20489;-81
2023/04/06 05:50:02;;;;;;;16.60;8.15;;;;;;;;;;5053015;28;20075;-81
2023/04/06 05:52:28;;;;;;;14.32;9.07;;;;;;;;;;5054433;28;20033;-81
2023/04/06 05:54:54;;;;;;;17.08;9.13;;;;;;;;;;5053999;28;20112;-81
2023/04/06 05:57:21;;;;;;;14.48;8.38;;;;;;;;;;5052624;28;20143;-79
2023/04/06 05:59:47;;;;;;;14.23;8.73;;;;;;;;;;5036599;28;20075;-79
2023/04/06 06:02:13;;;;;;;17.17;8.82;;;;;;;;;;5048723;28;20402;-79
2023/04/06 06:04:39;;;;;;;15.45;8.32;;;;;;;;;;5054141;28;20037;-80
2023/04/06 06:07:06;;;;;;;14.45;8.82;;;;;;;;;;5052341;28;20037;-80
2023/04/06 06:09:32;;;;;;;15.07;8.90;;;;;;;;;;5052791;28;20051;-80
2023/04/06 06:11:58;;;;;;;14.43;8.63;;;;;;;;;;5054080;28;20040;-80
2023/04/06 06:14:24;;;;;;;14.23;9.18;;;;;;;;;;5052260;28;20074;-80
2023/04/06 06:16:50;;;;;;;14.48;8.63;;;;;;;;;;5085869;28;20069;-80
2023/04/06 06:19:16;;;;;;;14.07;8.88;;;;;;;;;;5052213;28;20047;-80
2023/04/06 06:21:42;;;;;;;16.17;9.10;;;;;;;;;;5052606;28;20044;-80
2023/04/06 06:24:09;;;;;;;16.08;8.60;;;;;;;;;;5053231;28;20041;-80
2023/04/06 06:26:36;;;;;;;14.43;9.60;;;;;;;;;;5052674;28;20041;-80
2023/04/06 06:29:05;;;;;;;14.65;8.57;;;;;;;;;;5052151;28;20045;-80
2023/04/06 06:31:31;;;;;;;15.60;9.07;;;;;;;;;;5040666;28;20052;-82
2023/04/06 06:33:57;;;;;;;17.20;8.60;;;;;;;;;;5050977;28;20407;-81
2023/04/06 06:36:25;;;;;;;13.45;8.77;;;;;;;;;;5053019;28;20068;-81
2023/04/06 06:38:52;;;;;;;13.82;8.40;;;;;;;;;;5051641;28;20190;-81
2023/04/06 06:41:18;;;;;;;14.63;8.80;;;;;;;;;;5085333;28;20044;-81
2023/04/06 06:43:44;;;;;;;23.17;8.77;;;;;;;;;;5052062;28;20045;-81
2023/04/06 06:46:10;;;;;;;22.80;9.00;;;;;;;;;;5051636;28;20048;-81
2023/04/06 06:48:36;;;;;;;15.07;8.88;;;;;;;;;;5053192;28;20047;-81
2023/04/06 06:51:02;;;;;;;13.93;8.75;;;;;;;;;;5051872;28;20049;-81
2023/04/06 06:53:29;;;;;;;15.70;9.45;;;;;;;;;;5052842;28;20120;-82
2023/04/06 06:55:55;;;;;;;14.52;9.50;;;;;;;;;;5048743;28;20041;-82
2023/04/06 06:58:22;;;;;;;14.07;8.90;;;;;;;;;;5046785;28;20032;-82
2023/04/06 07:00:48;;;;;;;14.50;9.20;;;;;;;;;;5047953;28;20052;-82
2023/04/06 07:03:14;;;;;;;15.35;10.07;;;;;;;;;;5046861;28;20044;-82
2023/04/06 07:05:49;;;;;;;15.25;9.05;;;;;;;;;;5051952;28;20048;-82
2023/04/06 07:08:16;;;;;;;14.40;9.80;;;;;;;;;;5052059;28;20072;-81
2023/04/06 07:10:42;;;;;;;18.85;9.15;;;;;;;;;;5053307;28;20037;-82
2023/04/06 07:13:08;;;;;;;18.48;9.75;;;;;;;;;;5053332;28;20041;-82
2023/04/06 07:15:34;;;;;;;17.50;9.10;;;;;;;;;;5051188;28;20076;-81
2023/04/06 07:18:00;;;;;;;13.05;9.23;;;;;;;;;;5052741;28;20037;-81
2023/04/06 07:20:27;;;;;;;16.10;9.45;;;;;;;;;;5034065;28;20040;-81
2023/04/06 07:22:54;;;;;;;14.90;9.30;;;;;;;;;;5051583;28;20056;-81
2023/04/06 07:25:20;;;;;;;13.43;9.10;;;;;;;;;;5052251;28;20037;-82
2023/04/06 07:27:47;;;;;;;15.77;9.50;;;;;;;;;;5034720;28;20049;-81
2023/04/06 07:30:14;;;;;;;13.88;9.38;;;;;;;;;;5052037;28;20080;-81
2023/04/06 07:32:40;;;;;;;15.40;9.48;;;;;;;;;;5051347;28;20123;-81
2023/04/06 07:35:06;;;;;;;14.55;9.63;;;;;;;;;;5067884;28;20037;-81
2023/04/06 07:37:32;;;;;;;17.30;9.52;;;;;;;;;;5050727;28;20076;-81
2023/04/06 07:39:58;;;;;;;15.02;10.43;;;;;;;;;;5053942;28;20049;-80
2023/04/06 07:42:24;;;;;;;15.05;9.13;;;;;;;;;;5072184;28;20086;-81
2023/04/06 07:44:50;;;;;;;15.38;9.60;;;;;;;;;;5072332;28;20040;-82
2023/04/06 07:47:16;;;;;;;16.27;10.02;;;;;;;;;;5063933;28;20051;-82
2023/04/06 07:49:42;;;;;;;16.13;9.80;;;;;;;;;;5063801;28;20493;-82
2023/04/06 07:52:09;;;;;;;15.68;9.98;;;;;;;;;;5071228;28;20417;-82
2023/04/06 07:54:35;;;;;;;16.02;10.20;;;;;;;;;;5070762;28;20086;-82
2023/04/06 07:57:01;;;;;;;14.35;9.85;;;;;;;;;;5072120;28;20045;-82
2023/04/06 07:59:27;;;;;;;16.10;10.13;;;;;;;;;;5072068;28;20040;-82
2023/04/06 08:01:53;;;;;;;18.77;10.68;;;;;;;;;;5058336;28;20043;-82
2023/04/06 08:04:19;;;;;;;16.30;10.05;;;;;;;;;;5071681;28;20036;-82
2023/04/06 08:06:45;;;;;;;16.70;10.82;;;;;;;;;;5054406;28;20481;-82
2023/04/06 08:09:11;;;;;;;17.33;10.93;;;;;;;;;;5070758;28;20059;-82
2023/04/06 08:11:37;;;;;;;17.05;10.95;;;;;;;;;;5070400;28;20044;-82
2023/04/06 08:14:03;;;;;;;17.73;11.75;;;;;;;;;;5072151;28;20040;-82
2023/04/06 08:16:30;;;;;;;17.80;11.77;;;;;;;;;;5053618;28;20040;-82
2023/04/06 08:18:56;;;;;;;16.58;11.27;;;;;;;;;;5070766;28;20037;-82
2023/04/06 08:21:22;;;;;;;16.67;11.32;;;;;;;;;;5070232;28;20040;-82
2023/04/06 08:23:48;;;;;;;19.27;11.35;;;;;;;;;;5072322;28;20120;-82
2023/04/06 08:26:14;;;;;;;20.20;11.45;;;;;;;;;;5070541;28;20037;-82
2023/04/06 08:28:40;;;;;;;19.55;11.60;;;;;;;;;;5053570;28;20037;-82
2023/04/06 08:31:07;;;;;;;20.10;11.32;;;;;;;;;;5071976;28;20040;-82
2023/04/06 08:33:36;;;;;;;19.75;11.45;;;;;;;;;;5074078;28;20443;-82
2023/04/06 08:36:12;;;;;;;18.58;11.45;;;;;;;;;;5075602;28;20037;-82
2023/04/06 08:38:39;;;;;;;15.48;11.20;;;;;;;;;;5068302;28;20045;-82
2023/04/06 08:41:09;;;;;;;25.15;12.82;;;;;;;;;;5067742;28;20047;-82
2023/04/06 08:43:41;;;;;;;19.52;11.90;;;;;;;;;;5057662;28;20489;-82
2023/04/06 08:46:10;;;;;;;18.50;12.18;;;;;;;;;;5074628;28;20083;-82
2023/04/06 08:48:37;;;;;;;19.50;12.30;;;;;;;;;;5075299;28;20049;-82
2023/04/06 08:51:03;;;;;;;19.27;12.50;;;;;;;;;;5074290;28;20051;-82
2023/04/06 08:53:29;;;;;;;18.90;12.50;;;;;;;;;;5075075;28;20036;-82
2023/04/06 08:55:58;;;;;;;19.02;12.23;;;;;;;;;;5108092;28;20043;-82
2023/04/06 08:58:26;;;;;;;20.92;13.05;;;;;;;;;;5073467;28;20098;-82
2023/04/06 09:00:52;;;;;;;21.20;12.90;;;;;;;;;;5070564;28;20052;-82
2023/04/06 09:03:20;;;;;;;20.23;12.93;;;;;;;;;;5068221;28;20051;-82
2023/04/06 09:05:47;;;;;;;17.30;12.43;;;;;;;;;;5042632;28;20051;-82
2023/04/06 09:08:13;;;;;;;21.85;12.70;;;;;;;;;;5074004;28;20048;-82
2023/04/06 09:10:42;;;;;;;20.80;12.88;;;;;;;;;;5073331;28;20041;-82
2023/04/06 09:13:09;;;;;;;19.02;12.20;;;;;;;;;;5057531;28;20508;-82
2023/04/06 09:15:35;;;;;;;19.75;13.10;;;;;;;;;;5072873;28;20115;-82
2023/04/06 09:18:02;;;;;;;19.45;12.98;;;;;;;;;;5061712;28;20137;-82
2023/04/06 09:20:28;;;;;;;19.42;12.82;;;;;;;;;;5073379;28;20048;-82
2023/04/06 09:22:55;;;;;;;21.98;12.23;;;;;;;;;;5073850;28;20044;-81
2023/04/06 09:25:27;;;;;;;19.15;13.20;;;;;;;;;;5073830;28;20492;-81
2023/04/06 09:28:00;;;;;;;19.73;13.00;;;;;;;;;;5074861;28;20040;-81
2023/04/06 09:30:27;;;;;;;20.67;14.07;;;;;;;;;;5074545;28;20048;-81
2023/04/06 09:32:54;;;;;;;21.35;14.23;;;;;;;;;;5058682;28;20076;-81
2023/04/06 09:35:20;;;;;;;21.17;13.70;;;;;;;;;;5053611;28;20040;-81
2023/04/06 09:37:47;;;;;;;21.08;14.10;;;;;;;;;;5052449;28;20423;-81
2023/04/06 09:40:14;;;;;;;22.40;13.50;;;;;;;;;;5037046;28;20137;-80
2023/04/06 09:42:42;;;;;;;22.02;13.35;;;;;;;;;;5036398;28;20049;-82
2023/04/06 09:45:08;;;;;;;25.50;15.63;;;;;;;;;;5053352;28;20072;-82
2023/04/06 09:47:36;;;;;;;22.35;14.68;;;;;;;;;;5052809;28;20107;-82
2023/04/06 09:50:03;;;;;;;24.98;14.13;;;;;;;;;;5053474;28;20045;-82
2023/04/06 09:52:33;;;;;;;26.80;15.45;;;;;;;;;;5052763;28;20029;-82
2023/04/06 09:55:04;;;;;;;22.85;14.35;;;;;;;;;;5053174;28;20072;-82
2023/04/06 09:57:30;;;;;;;28.25;15.25;;;;;;;;;;5053990;28;20033;-83
2023/04/06 10:00:11;;;;;;;33.53;16.63;;;;;;;;;;5054436;28;20167;-83
2023/04/06 10:02:37;;;;;;;23.92;15.02;;;;;;;;;;5040646;28;20049;-82
2023/04/06 10:05:07;;;;;;;24.35;14.82;;;;;;;;;;5054299;28;20033;-82
2023/04/06 10:07:33;;;;;;;24.90;14.48;;;;;;;;;;5052805;28;20041;-83
2023/04/06 10:10:01;;;;;;;26.30;15.02;;;;;;;;;;5052935;28;20041;-82
2023/04/06 10:12:27;;;;;;;24.30;14.95;;;;;;;;;;5052977;28;20037;-83
2023/04/06 10:14:54;;;;;;;25.77;14.80;;;;;;;;;;5054581;28;20501;-82
2023/04/06 10:17:20;;;;;;;27.05;15.82;;;;;;;;;;5054436;28;20393;-83
2023/04/06 10:20:07;;;;;;;31.08;15.25;;;;;;;;;;5054107;28;20073;-83
2023/04/06 10:22:37;;;;;;;27.17;14.70;;;;;;;;;;5053564;28;20040;-83
2023/04/06 10:25:03;;;;;;;25.88;14.80;;;;;;;;;;5052947;28;20045;-82
2023/04/06 10:27:30;;;;;;;24.88;15.50;;;;;;;;;;5052498;28;20048;-83
2023/04/06 10:30:01;;;;;;;25.35;14.38;;;;;;;;;;5053397;28;20033;-82
2023/04/06 10:32:35;;;;;;;27.60;15.25;;;;;;;;;;5052946;28;20567;-82
2023/04/06 10:35:14;;;;;;;23.17;14.30;;;;;;;;;;5053496;28;20041;-83
2023/04/06 10:37:59;;;;;;;24.17;14.18;;;;;;;;;;5053193;28;20063;-83
2023/04/06 10:40:26;;;;;;;23.75;13.48;;;;;;;;;;5038753;28;20045;-83
2023/04/06 10:42:53;;;;;;;26.00;14.55;;;;;;;;;;5064339;28;20044;-83
2023/04/06 10:45:20;;;;;;;24.58;15.15;;;;;;;;;;5056030;28;20578;-82
2023/04/06 10:47:46;;;;;;;24.80;15.80;;;;;;;;;;5071784;28;20119;-83
2023/04/06 10:50:15;;;;;;;26.92;14.75;;;;;;;;;;5055290;28;20054;-83
2023/04/06 10:52:41;;;;;;;26.52;15.45;;;;;;;;;;5062377;28;20044;-83
2023/04/06 10:55:11;;;;;;;28.05;14.50;;;;;;;;;;5060144;28;20073;-83
2023/04/06 10:57:38;;;;;;;22.90;14.50;;;;;;;;;;5038135;28;20037;-83
2023/04/06 11:00:08;;;;;;;25.48;14.88;;;;;;;;;;5052023;28;20102;-82
2023/04/06 11:02:36;;;;;;;26.17;14.63;;;;;;;;;;5051736;28;20037;-83
2023/04/06 11:05:02;;;;;;;26.25;15.13;;;;;;;;;;5053345;28;20044;-82
2023/04/06 11:07:30;;;;;;;28.02;15.32;;;;;;;;;;5051634;28;20135;-83
2023/04/06 11:09:56;;;;;;;25.60;15.02;;;;;;;;;;5051230;28;20044;-82
2023/04/06 11:12:25;;;;;;;26.45;15.02;;;;;;;;;;5053081;28;20041;-81
2023/04/06 11:15:04;;;;;;;26.65;15.07;;;;;;;;;;5051776;28;20516;-83
2023/04/06 11:17:30;;;;;;;25.13;15.48;;;;;;;;;;5051886;28;20072;-83
2023/04/06 11:19:57;;;;;;;25.33;15.18;;;;;;;;;;5051200;28;20044;-82
2023/04/06 11:22:24;;;;;;;26.65;15.90;;;;;;;;;;5052974;28;20044;-83
2023/04/06 11:24:50;;;;;;;23.92;14.38;;;;;;;;;;5051050;28;20053;-82
2023/04/06 11:27:16;;;;;;;25.83;14.70;;;;;;;;;;5052723;28;20045;-82
2023/04/06 11:29:42;;;;;;;27.75;15.07;;;;;;;;;;5052347;28;20037;-82
2023/04/06 11:32:09;;;;;;;23.83;14.82;;;;;;;;;;5051269;28;20045;-82
2023/04/06 11:34:39;;;;;;;24.77;14.10;;;;;;;;;;5052572;28;20032;-82
2023/04/06 11:37:09;;;;;;;26.48;14.63;;;;;;;;;;5085367;28;20389;-82
2023/04/06 11:39:43;;;;;;;28.58;15.63;;;;;;;;;;5050795;28;20059;-82
2023/04/06 11:42:09;;;;;;;24.58;14.38;;;;;;;;;;5059144;28;20040;-83
2023/04/06 11:44:36;;;;;;;23.75;15.07;;;;;;;;;;5071468;28;20080;-82
2023/04/06 11:47:02;;;;;;;24.58;14.55;;;;;;;;;;5071861;28;20036;-82
2023/04/06 11:49:29;;;;;;;24.40;14.85;;;;;;;;;;5071408;28;20052;-82
2023/04/06 11:51:56;;;;;;;24.20;14.52;;;;;;;;;;5071831;28;20036;-82
2023/04/06 11:54:35;;;;;;;24.90;14.35;;;;;;;;;;5070613;28;20036;-82
2023/04/06 11:57:02;;;;;;;24.42;14.55;;;;;;;;;;5051892;28;20041;-82
2023/04/06 11:59:28;;;;;;;25.88;15.23;;;;;;;;;;5051110;28;20079;-82
2023/04/06 12:01:54;;;;;;;25.08;14.80;;;;;;;;;;5044394;28;20040;-82
2023/04/06 12:04:20;;;;;;;26.33;15.57;;;;;;;;;;5052341;28;20049;-83
2023/04/06 12:06:46;;;;;;;26.52;15.73;;;;;;;;;;5050325;28;20048;-83
2023/04/06 12:09:13;;;;;;;25.27;15.75;;;;;;;;;;5050682;28;20481;-82
2023/04/06 12:11:40;;;;;;;28.10;15.23;;;;;;;;;;5052265;28;20045;-82
2023/04/06 12:14:07;;;;;;;25.95;15.02;;;;;;;;;;5051326;28;20134;-82
2023/04/06 12:16:34;;;;;;;23.92;14.00;;;;;;;;;;5053155;28;20041;-82
2023/04/06 12:19:01;;;;;;;23.98;14.05;;;;;;;;;;5052242;28;20390;-83
2023/04/06 12:21:31;;;;;;;22.25;14.25;;;;;;;;;;5053369;28;20116;-82
2023/04/06 12:23:58;;;;;;;23.48;14.50;;;;;;;;;;5053728;28;20045;-82
2023/04/06 12:26:24;;;;;;;22.52;13.80;;;;;;;;;;5054115;28;20041;-82
2023/04/06 12:28:50;;;;;;;19.65;12.93;;;;;;;;;;5050008;28;20044;-82
2023/04/06 12:31:17;;;;;;;18.83;11.00;;;;;;;;;;5052168;28;20049;-82
2023/04/06 12:33:44;;;;;;;18.17;11.50;;;;;;;;;;5052447;28;20051;-82
2023/04/06 12:36:15;;;;;;;20.52;11.38;;;;;;;;;;5051634;28;20036;-82
2023/04/06 12:38:41;;;;;;;17.55;10.10;;;;;;;;;;5057918;28;20049;-82
2023/04/06 12:41:07;;;;;;;20.65;11.07;;;;;;;;;;5071929;28;20193;-82
2023/04/06 12:43:34;;;;;;;19.88;10.85;;;;;;;;;;5072253;28;20036;-82
2023/04/06 12:46:00;;;;;;;18.80;10.73;;;;;;;;;;5054563;28;20051;-82
2023/04/06 12:48:27;;;;;;;17.15;11.13;;;;;;;;;;5070867;28;20036;-82
2023/04/06 12:51:00;;;;;;;18.75;11.00;;;;;;;;;;5054073;28;20044;-82
2023/04/06 12:53:26;;;;;;;19.08;11.10;;;;;;;;;;5054513;28;20439;-82
2023/04/06 12:55:53;;;;;;;17.80;11.27;;;;;;;;;;5071787;28;20051;-82
2023/04/06 12:58:19;;;;;;;17.80;10.93;;;;;;;;;;5070992;28;20043;-82
2023/04/06 13:00:45;;;;;;;22.70;12.02;;;;;;;;;;5049997;28;20053;-82
2023/04/06 13:03:12;;;;;;;16.40;10.57;;;;;;;;;;5062275;28;20127;-82
2023/04/06 13:05:44;;;;;;;17.88;10.55;;;;;;;;;;5070683;28;20137;-82
2023/04/06 13:08:11;;;;;;;16.92;10.98;;;;;;;;;;5053540;28;20068;-82
2023/04/06 13:10:37;;;;;;;19.38;10.57;;;;;;;;;;5070181;28;20040;-82
2023/04/06 13:13:03;;;;;;;16.45;10.68;;;;;;;;;;5070702;28;20044;-82
2023/04/06 13:15:29;;;;;;;19.67;11.02;;;;;;;;;;5071844;28;20556;-82
2023/04/06 13:17:56;;;;;;;18.08;11.00;;;;;;;;;;5070826;28;20090;-82
2023/04/06 13:20:24;;;;;;;17.50;10.18;;;;;;;;;;5075725;28;20141;-82
2023/04/06 13:22:50;;;;;;;13.95;9.98;;;;;;;;;;5058278;28;20098;-82
2023/04/06 13:25:16;;;;;;;17.60;11.07;;;;;;;;;;5074175;28;20509;-82
2023/04/06 13:27:45;;;;;;;18.38;9.75;;;;;;;;;;5076271;28;20032;-82
2023/04/06 13:30:12;;;;;;;15.93;9.93;;;;;;;;;;5057918;28;20094;-82
2023/04/06 13:32:39;;;;;;;15.30;9.98;;;;;;;;;;5072895;28;20044;-82
2023/04/06 13:35:06;;;;;;;17.50;9.82;;;;;;;;;;5045404;28;20044;-82
2023/04/06 13:37:32;;;;;;;17.00;10.80;;;;;;;;;;5074159;28;20508;-82
2023/04/06 13:39:58;;;;;;;14.55;10.00;;;;;;;;;;5059922;28;20148;-82
2023/04/06 13:42:25;;;;;;;19.58;10.55;;;;;;;;;;5073482;28;20043;-82
2023/04/06 13:44:51;;;;;;;18.05;11.55;;;;;;;;;;5059536;28;20395;-82
2023/04/06 13:47:17;;;;;;;17.20;11.32;;;;;;;;;;5074460;28;20040;-82
2023/04/06 13:49:43;;;;;;;19.23;11.90;;;;;;;;;;5073291;28;20119;-82
2023/04/06 13:52:10;;;;;;;19.30;12.23;;;;;;;;;;5072674;28;20473;-82
2023/04/06 13:54:36;;;;;;;20.45;12.65;;;;;;;;;;5073262;28;20154;-82
2023/04/06 13:57:02;;;;;;;21.75;13.60;;;;;;;;;;5074175;28;20158;-82
2023/04/06 13:59:35;;;;;;;24.08;14.23;;;;;;;;;;5074641;28;20489;-82
2023/04/06 14:02:05;;;;;;;21.20;13.75;;;;;;;;;;5060636;28;20448;-82
2023/04/06 14:04:31;;;;;;;24.17;15.07;;;;;;;;;;5073242;28;20405;-82
2023/04/06 14:06:58;;;;;;;24.77;15.25;;;;;;;;;;5073807;28;20090;-82
2023/04/06 14:09:24;;;;;;;22.95;15.70;;;;;;;;;;5074541;28;20481;-82
2023/04/06 14:11:51;;;;;;;23.95;14.63;;;;;;;;;;5072743;28;20128;-82
2023/04/06 14:14:17;;;;;;;24.35;14.90;;;;;;;;;;5106255;28;20052;-82
2023/04/06 14:16:46;;;;;;;24.88;14.73;;;;;;;;;;5056288;28;20045;-82
2023/04/06 14:19:14;;;;;;;26.15;16.73;;;;;;;;;;5073548;28;20036;-82
2023/04/06 14:21:40;;;;;;;23.83;15.95;;;;;;;;;;5073947;28;20059;-82